Time;durP1;ratioP1;P1;durP2;ratioP2;P2;SDS_P1;SDS_P2;PMS_P1;PMS_P2;Temp;Humidity;BMP_temperature;BMP_pressure;BME280_temperature;BME280_humidity;BME280_pressure;Samples;Min_cycle;Max_cycle;Signal;HPM_P1;HPM_P2
2022/12/02 00:01:27;;;;;;;18.13;13.68;;;;;;;18.43;47.53;102636.88;5064946;28;20078;-65
2022/12/02 00:03:52;;;;;;;17.02;13.82;;;;;;;18.43;47.28;102636.88;5064383;28;20028;-67
2022/12/02 00:06:36;;;;;;;16.73;13.75;;;;;;;18.14;47.48;102591.63;5064587;28;20068;-66
2022/12/02 00:09:13;;;;;;;17.05;13.73;;;;;;;18.42;47.34;102644.13;5067908;28;20140;-66
2022/12/02 00:11:39;;;;;;;18.27;13.60;;;;;;;18.42;47.32;102640.56;5067647;28;20426;-65
2022/12/02 00:14:14;;;;;;;20.23;15.00;;;;;;;18.32;47.34;102623.44;5066873;28;20449;-64
2022/12/02 00:16:39;;;;;;;17.50;13.43;;;;;;;18.01;47.40;102573.88;5066790;28;20025;-65
2022/12/02 00:19:04;;;;;;;18.70;14.13;;;;;;;18.39;47.23;102639.00;5067923;28;20094;-66
2022/12/02 00:21:29;;;;;;;16.33;13.23;;;;;;;18.37;47.29;102629.31;5068301;28;20025;-65
2022/12/02 00:23:55;;;;;;;17.80;13.40;;;;;;;18.28;47.36;102616.59;5067657;28;20029;-66
2022/12/02 00:26:21;;;;;;;16.20;13.57;;;;;;;18.34;47.53;102625.03;5068289;28;20695;-64
2022/12/02 00:28:46;;;;;;;16.83;13.50;;;;;;;18.35;47.54;102617.78;5067268;28;20043;-66
2022/12/02 00:31:11;;;;;;;16.05;12.77;;;;;;;18.30;47.10;102617.31;5068183;28;20025;-65
2022/12/02 00:33:36;;;;;;;17.67;12.70;;;;;;;18.33;47.46;102623.31;5066764;28;20029;-64
2022/12/02 00:36:02;;;;;;;16.85;12.55;;;;;;;18.32;47.32;102618.91;5068272;28;20021;-66
2022/12/02 00:38:27;;;;;;;20.67;14.85;;;;;;;18.29;47.14;102608.38;5067790;28;20040;-67
2022/12/02 00:40:52;;;;;;;18.63;13.55;;;;;;;18.30;47.29;102618.16;5068189;28;20490;-66
2022/12/02 00:48:45;;;;;;;17.30;13.02;;;;;;;18.25;47.43;102606.91;5067362;28;20098;-64
2022/12/02 00:51:11;;;;;;;19.05;14.23;;;;;;;18.27;47.33;102598.72;5068115;28;20024;-65
2022/12/02 00:53:36;;;;;;;18.60;14.32;;;;;;;18.26;47.38;102605.94;5067644;28;20032;-64
2022/12/02 00:56:01;;;;;;;18.25;13.60;;;;;;;18.26;47.16;102603.22;5067756;28;20032;-65
2022/12/02 00:58:26;;;;;;;16.95;12.80;;;;;;;18.26;47.32;102599.69;5067242;28;20031;-64
2022/12/02 01:00:52;;;;;;;17.38;12.98;;;;;;;18.23;47.39;102598.97;5067751;28;20021;-65
2022/12/02 01:03:17;;;;;;;18.17;13.05;;;;;;;18.23;47.05;102598.97;5067347;28;20032;-65
2022/12/02 01:05:42;;;;;;;17.50;13.88;;;;;;;18.22;47.33;102597.28;5067517;28;20029;-64
2022/12/02 01:08:08;;;;;;;17.77;13.50;;;;;;;18.21;47.14;102597.38;5067541;28;20029;-64
2022/12/02 01:10:33;;;;;;;17.05;12.98;;;;;;;18.22;47.20;102599.06;5067622;28;20037;-65
2022/12/02 01:12:58;;;;;;;16.25;13.02;;;;;;;18.16;47.32;102583.44;5067032;28;20044;-64
2022/12/02 01:15:24;;;;;;;18.08;13.20;;;;;;;18.04;47.28;102561.03;5066694;28;20033;-64
2022/12/02 01:17:49;;;;;;;18.13;13.80;;;;;;;18.17;47.46;102585.97;5066787;28;20058;-64
2022/12/02 01:20:14;;;;;;;20.88;14.52;;;;;;;18.17;47.09;102588.69;5066864;28;20662;-65
2022/12/02 01:22:39;;;;;;;17.55;13.10;;;;;;;18.17;47.03;102587.81;5067202;28;20025;-65
2022/12/02 01:25:05;;;;;;;17.42;13.07;;;;;;;18.17;47.43;102593.22;5067083;28;20039;-64
2022/12/02 01:27:30;;;;;;;18.65;13.25;;;;;;;18.15;47.26;102593.34;5067260;28;20656;-65
2022/12/02 01:29:55;;;;;;;16.95;13.15;;;;;;;18.14;47.29;102591.63;5066815;28;20036;-65
2022/12/02 01:32:22;;;;;;;16.77;12.48;;;;;;;18.14;47.33;102598.84;5066979;28;20025;-65
2022/12/02 01:34:47;;;;;;;17.83;13.75;;;;;;;18.10;47.03;102590.16;5066838;28;20107;-65
2022/12/02 01:37:13;;;;;;;17.35;13.30;;;;;;;18.13;47.03;102603.34;5067215;28;20021;-66
2022/12/02 01:39:38;;;;;;;15.05;11.63;;;;;;;18.11;47.01;102594.56;5066662;28;20120;-66
2022/12/02 01:42:04;;;;;;;17.23;12.50;;;;;;;18.04;47.04;102579.03;5066811;28;20033;-66
2022/12/02 01:44:29;;;;;;;17.27;12.60;;;;;;;18.10;47.01;102587.47;5066393;28;20119;-66
2022/12/02 01:46:55;;;;;;;16.80;12.93;;;;;;;18.09;47.21;102591.13;5064539;28;20098;-65
2022/12/02 01:49:21;;;;;;;17.02;12.90;;;;;;;18.09;46.97;102584.88;5066680;28;20024;-66
2022/12/02 01:51:46;;;;;;;17.20;12.55;;;;;;;18.08;47.23;102589.41;5066711;28;20059;-66
2022/12/02 01:54:12;;;;;;;15.43;11.98;;;;;;;17.98;47.15;102575.84;5066469;28;20029;-66
2022/12/02 01:56:37;;;;;;;16.20;12.48;;;;;;;18.07;47.28;102597.63;5066740;28;20025;-66
2022/12/02 01:59:03;;;;;;;17.05;12.35;;;;;;;18.07;47.11;102605.69;5081591;28;20063;-66
2022/12/02 02:01:30;;;;;;;16.90;12.57;;;;;;;18.05;47.03;102607.63;5066537;28;20109;-66
2022/12/02 02:03:56;;;;;;;15.60;12.15;;;;;;;18.04;47.29;102597.84;5066034;28;20044;-66
2022/12/02 02:06:23;;;;;;;17.65;12.52;;;;;;;18.04;47.00;102595.16;5065167;28;20025;-65
2022/12/02 02:08:49;;;;;;;16.85;12.05;;;;;;;18.03;46.90;102593.47;5066201;28;20032;-66
2022/12/02 02:11:15;;;;;;;16.58;12.52;;;;;;;18.02;46.98;102584.53;5065091;28;20029;-66
2022/12/02 02:13:40;;;;;;;16.02;12.40;;;;;;;18.02;47.05;102584.53;5064480;28;20056;-65
2022/12/02 02:16:06;;;;;;;17.08;12.80;;;;;;;18.01;47.05;102576.56;5065830;28;20032;-65
2022/12/02 02:18:31;;;;;;;19.20;12.88;;;;;;;17.92;46.92;102568.25;5065698;28;20055;-65
2022/12/02 02:20:57;;;;;;;16.90;12.52;;;;;;;18.00;47.05;102581.09;5066155;28;20032;-65
2022/12/02 02:23:24;;;;;;;16.55;12.23;;;;;;;17.99;46.78;102582.94;5081345;28;20835;-65
2022/12/02 02:25:52;;;;;;;15.63;12.18;;;;;;;17.90;47.12;102570.22;5064874;28;20040;-65
2022/12/02 02:28:17;;;;;;;15.02;11.93;;;;;;;17.96;47.01;102575.09;5081432;28;20049;-65
2022/12/02 02:30:43;;;;;;;16.40;11.82;;;;;;;17.97;47.15;102575.97;5064837;28;20040;-66
2022/12/02 02:33:10;;;;;;;15.57;11.63;;;;;;;17.97;47.04;102575.97;5064551;28;20020;-65
2022/12/02 02:35:38;;;;;;;15.60;12.05;;;;;;;17.96;47.00;102568.84;5064674;28;20052;-66
2022/12/02 02:38:06;;;;;;;17.50;12.48;;;;;;;17.96;47.05;102571.56;5065767;28;20044;-66
2022/12/02 02:40:31;;;;;;;15.75;12.13;;;;;;;17.95;46.95;102570.69;5065633;28;20029;-66
2022/12/02 02:42:59;;;;;;;16.38;12.60;;;;;;;17.94;46.76;102568.13;5065257;28;20036;-65
2022/12/02 02:45:26;;;;;;;15.35;11.85;;;;;;;17.90;46.81;102564.84;5064499;28;20029;-65
2022/12/02 02:47:52;;;;;;;17.95;12.57;;;;;;;17.93;47.03;102564.59;5064619;28;20025;-66
2022/12/02 02:50:17;;;;;;;16.75;12.02;;;;;;;17.93;47.08;102563.75;5064214;28;20090;-66
2022/12/02 02:52:43;;;;;;;15.82;10.75;;;;;;;17.92;46.99;102562.00;5064219;28;20096;-65
2022/12/02 02:55:14;;;;;;;14.95;10.88;;;;;;;17.91;47.07;102561.16;5065627;28;20050;-67
2022/12/02 02:57:39;;;;;;;15.05;12.07;;;;;;;17.91;47.39;102557.59;5064292;28;20028;-66
2022/12/02 03:00:05;;;;;;;14.18;10.85;;;;;;;17.90;47.05;102556.75;5064922;28;20029;-66
2022/12/02 03:02:30;;;;;;;15.48;11.13;;;;;;;17.89;47.05;102551.50;5064015;28;20083;-66
2022/12/02 03:04:56;;;;;;;17.85;11.73;;;;;;;17.87;47.00;102542.69;5064989;28;20021;-66
2022/12/02 03:07:21;;;;;;;14.65;11.43;;;;;;;17.89;46.74;102556.91;5080661;28;20524;-66
2022/12/02 03:09:47;;;;;;;16.02;11.20;;;;;;;17.87;47.06;102548.06;5063503;28;20021;-66
2022/12/02 03:12:12;;;;;;;15.15;11.80;;;;;;;17.87;47.13;102548.06;5063948;28;20032;-66
2022/12/02 03:14:37;;;;;;;14.05;10.82;;;;;;;17.81;47.04;102541.34;5079634;28;20029;-64
2022/12/02 03:17:03;;;;;;;18.48;12.20;;;;;;;17.85;46.82;102550.91;5064676;28;20140;-67
2022/12/02 03:19:30;;;;;;;15.68;11.60;;;;;;;17.80;47.06;102542.34;5065333;28;20028;-66
2022/12/02 03:21:55;;;;;;;14.73;10.68;;;;;;;17.83;46.78;102554.66;5080706;28;20021;-66
2022/12/02 03:24:20;;;;;;;16.25;11.40;;;;;;;17.83;46.78;102552.84;5080257;28;20051;-66
2022/12/02 03:26:46;;;;;;;14.90;10.52;;;;;;;17.82;47.04;102551.13;5080659;28;20021;-66
2022/12/02 03:29:12;;;;;;;16.02;11.52;;;;;;;17.82;46.78;102553.81;5063022;28;20029;-67
2022/12/02 03:31:38;;;;;;;15.75;10.50;;;;;;;17.81;47.07;102551.25;5062376;28;20036;-66
2022/12/02 03:34:03;;;;;;;15.23;11.07;;;;;;;17.81;46.71;102551.25;5044801;28;20030;-65
2022/12/02 03:36:29;;;;;;;15.95;11.35;;;;;;;17.81;46.71;102546.72;5045454;28;20417;-66
2022/12/02 03:38:54;;;;;;;15.18;10.70;;;;;;;17.68;46.94;102530.66;5058286;28;20446;-66
2022/12/02 03:41:20;;;;;;;14.88;11.23;;;;;;;17.71;46.86;102524.19;5063510;28;20029;-66
2022/12/02 03:43:45;;;;;;;14.02;10.50;;;;;;;17.79;46.84;102545.13;5062775;28;20025;-66
2022/12/02 03:46:11;;;;;;;15.98;11.25;;;;;;;17.47;46.96;102492.88;5064032;28;20738;-67
2022/12/02 03:48:37;;;;;;;14.38;10.93;;;;;;;17.77;46.88;102542.56;5080017;28;20025;-66
2022/12/02 03:51:02;;;;;;;14.68;10.45;;;;;;;17.77;46.56;102537.19;5064729;28;20112;-66
2022/12/02 03:53:29;;;;;;;14.10;10.27;;;;;;;17.76;46.88;102529.25;5063175;28;20028;-66
2022/12/02 03:55:54;;;;;;;14.82;10.45;;;;;;;17.76;46.86;102529.25;5064976;28;20025;-67
2022/12/02 03:58:31;;;;;;;15.13;10.45;;;;;;;17.73;46.87;102528.47;5064509;28;20485;-67
2022/12/02 04:00:56;;;;;;;12.63;9.85;;;;;;;17.74;47.29;102530.19;5064458;28;20033;-66
2022/12/02 04:03:22;;;;;;;14.32;10.80;;;;;;;17.72;46.79;102531.28;5064297;28;20088;-66
2022/12/02 04:05:47;;;;;;;15.38;10.18;;;;;;;17.72;46.94;102529.44;5064475;28;20028;-67
2022/12/02 04:08:12;;;;;;;13.20;9.68;;;;;;;17.70;46.98;102520.63;5064552;28;20081;-66
2022/12/02 04:10:37;;;;;;;14.02;9.15;;;;;;;17.71;46.95;102524.19;5064466;28;20060;-66
2022/12/02 04:13:03;;;;;;;13.50;10.00;;;;;;;17.70;47.02;102519.78;5064266;28;20029;-66
2022/12/02 04:15:28;;;;;;;13.70;9.88;;;;;;;17.57;46.92;102501.06;5063702;28;20032;-67
2022/12/02 04:17:54;;;;;;;12.60;9.55;;;;;;;17.67;46.98;102518.22;5064585;28;20033;-66
2022/12/02 04:20:19;;;;;;;12.90;10.23;;;;;;;17.68;46.86;102524.44;5064384;28;20677;-67
2022/12/02 04:22:44;;;;;;;14.35;9.75;;;;;;;17.67;47.11;102523.59;5064493;28;20072;-67
2022/12/02 04:25:09;;;;;;;12.98;9.75;;;;;;;17.64;47.09;102526.50;5064236;28;20025;-67
2022/12/02 04:27:35;;;;;;;14.05;10.00;;;;;;;17.66;47.01;102527.22;5064473;28;20036;-67
2022/12/02 04:30:00;;;;;;;12.93;9.35;;;;;;;17.66;47.11;102529.91;5063759;28;20041;-66
2022/12/02 04:32:25;;;;;;;15.50;10.40;;;;;;;17.66;46.82;102526.38;5064420;28;20040;-66
2022/12/02 04:34:50;;;;;;;13.35;10.20;;;;;;;17.66;46.90;102521.00;5063758;28;20476;-67
2022/12/02 04:37:16;;;;;;;12.23;8.90;;;;;;;17.62;47.07;102509.63;5064353;28;20029;-65
2022/12/02 04:39:41;;;;;;;13.27;10.10;;;;;;;17.54;46.75;102497.75;5064143;28;20025;-67
2022/12/02 04:42:06;;;;;;;12.82;9.43;;;;;;;17.60;47.02;102505.34;5064151;28;20040;-66
2022/12/02 04:44:31;;;;;;;13.32;9.30;;;;;;;17.64;46.77;102506.84;5063668;28;20084;-67
2022/12/02 04:46:57;;;;;;;12.07;9.18;;;;;;;17.63;46.84;102507.81;5063458;28;20041;-66
2022/12/02 04:49:22;;;;;;;12.88;9.88;;;;;;;17.63;46.80;102508.66;5063997;28;20036;-66
2022/12/02 04:51:47;;;;;;;11.60;8.57;;;;;;;17.60;46.85;102499.97;5064163;28;20033;-66
2022/12/02 04:54:12;;;;;;;12.27;9.48;;;;;;;17.62;46.62;102498.00;5065721;28;20045;-64
2022/12/02 04:56:38;;;;;;;12.85;9.18;;;;;;;17.63;46.89;102502.44;5068129;28;20029;-65
2022/12/02 04:59:03;;;;;;;12.45;9.65;;;;;;;17.63;46.71;102503.28;5067115;28;20025;-65
2022/12/02 05:01:28;;;;;;;13.13;9.25;;;;;;;17.60;46.97;102494.59;5067891;28;20080;-66
2022/12/02 05:03:53;;;;;;;13.02;8.85;;;;;;;17.62;46.78;102500.69;5067478;28;20440;-66
2022/12/02 05:06:19;;;;;;;12.20;8.73;;;;;;;17.62;46.87;102500.69;5067022;28;20120;-65
2022/12/02 05:08:44;;;;;;;12.13;8.50;;;;;;;17.62;46.91;102496.16;5053492;28;20082;-66
2022/12/02 05:11:09;;;;;;;12.20;8.38;;;;;;;17.62;46.71;102496.16;5067667;28;20056;-66
2022/12/02 05:13:34;;;;;;;11.73;9.50;;;;;;;17.62;46.84;102495.31;5067043;28;20021;-65
2022/12/02 05:16:00;;;;;;;12.63;9.25;;;;;;;17.62;46.90;102493.47;5066700;28;20048;-65
2022/12/02 05:18:25;;;;;;;12.95;9.10;;;;;;;17.61;46.84;102497.16;5066918;28;20475;-65
2022/12/02 05:20:50;;;;;;;11.98;9.07;;;;;;;17.62;46.68;102492.63;5066306;28;20035;-64
2022/12/02 05:23:15;;;;;;;11.63;9.23;;;;;;;17.63;46.91;102494.38;5066384;28;20033;-65
2022/12/02 05:25:41;;;;;;;11.43;8.80;;;;;;;17.54;46.56;102476.25;5065379;28;20031;-64
2022/12/02 05:28:06;;;;;;;12.02;9.02;;;;;;;17.62;46.94;102492.63;5064832;28;20063;-64
2022/12/02 05:30:31;;;;;;;10.98;8.43;;;;;;;17.64;46.57;102490.69;5064413;28;20028;-65
2022/12/02 05:32:56;;;;;;;12.50;8.73;;;;;;;17.64;46.67;102490.69;5061848;28;20052;-64
2022/12/02 05:35:22;;;;;;;12.98;9.63;;;;;;;17.65;46.80;102487.00;5066018;28;20025;-64
2022/12/02 05:37:47;;;;;;;10.65;8.23;;;;;;;17.63;46.50;102484.47;5066486;28;20020;-64
2022/12/02 05:40:12;;;;;;;13.55;8.82;;;;;;;17.64;46.92;102486.16;5066323;28;20025;-65
2022/12/02 05:42:38;;;;;;;11.05;8.43;;;;;;;17.64;46.64;102490.69;5065907;28;20033;-64
2022/12/02 05:45:30;;;;;;;11.90;8.45;;;;;;;17.65;46.76;102489.69;5065863;28;20047;-64
2022/12/02 05:47:55;;;;;;;11.93;8.50;;;;;;;17.51;46.76;102461.22;5063154;28;20110;-64
2022/12/02 05:50:22;;;;;;;11.95;9.00;;;;;;;17.62;46.77;102476.50;5066288;28;20033;-64
2022/12/02 05:52:49;;;;;;;11.43;8.25;;;;;;;17.38;46.69;102442.50;5063006;28;20076;-64
2022/12/02 05:55:17;;;;;;;9.95;7.78;;;;;;;17.66;46.72;102491.41;5066269;28;20047;-64
2022/12/02 05:57:43;;;;;;;11.45;8.35;;;;;;;17.65;47.00;102482.50;5066047;28;20036;-65
2022/12/02 06:00:16;;;;;;;12.15;8.55;;;;;;;17.66;46.95;102484.19;5066123;28;20040;-64
2022/12/02 06:02:46;;;;;;;10.77;7.90;;;;;;;17.67;46.78;102480.56;5064988;28;20418;-64
2022/12/02 06:05:16;;;;;;;11.38;8.15;;;;;;;17.55;46.76;102459.16;5064900;28;20037;-64
2022/12/02 06:07:41;;;;;;;11.65;8.10;;;;;;;17.69;47.11;102480.41;5060758;28;20051;-64
2022/12/02 06:10:31;;;;;;;13.85;8.77;;;;;;;17.69;46.99;102481.25;5065630;28;20478;-64
2022/12/02 06:13:21;;;;;;;11.98;8.35;;;;;;;17.72;47.08;102489.09;5056458;28;20044;-64
2022/12/02 06:15:47;;;;;;;11.15;8.48;;;;;;;17.72;47.02;102472.97;5058505;28;20128;-64
2022/12/02 06:18:25;;;;;;;11.15;8.25;;;;;;;17.65;47.08;102463.66;5056615;28;20115;-64
2022/12/02 06:20:52;;;;;;;10.48;8.05;;;;;;;17.60;47.22;102455.09;5062642;28;20088;-64
2022/12/02 06:23:22;;;;;;;10.52;8.27;;;;;;;17.75;46.80;102477.25;5064117;28;20024;-64
2022/12/02 06:25:47;;;;;;;;;;;;;;;17.77;47.00;102480.69;5065831;28;20410;-63
2022/12/02 06:28:25;;;;;;;10.88;8.13;;;;;;;17.78;46.91;102484.22;5063661;28;19952;-64
2022/12/02 06:30:54;;;;;;;11.63;8.60;;;;;;;17.77;47.35;102501.38;5064675;28;20405;-64
2022/12/02 06:33:31;;;;;;;11.02;7.65;;;;;;;17.71;47.12;102490.09;5064602;28;20486;-63
2022/12/02 06:35:58;;;;;;;11.02;7.72;;;;;;;17.74;47.22;102491.69;5063337;28;20013;-64
2022/12/02 06:38:29;;;;;;;11.63;8.48;;;;;;;17.75;46.95;102490.69;5064882;28;20032;-64
2022/12/02 06:40:56;;;;;;;9.07;7.32;;;;;;;17.43;46.98;102440.31;5063226;28;20043;-64
2022/12/02 06:43:28;;;;;;;10.32;7.63;;;;;;;17.68;47.24;102470.63;5063635;28;20033;-65
2022/12/02 06:45:53;;;;;;;9.88;7.53;;;;;;;17.65;46.96;102463.66;5063928;28;20105;-63
2022/12/02 06:48:25;;;;;;;10.25;8.13;;;;;;;17.74;47.04;102480.94;5046895;28;20021;-63
2022/12/02 06:50:50;;;;;;;9.65;7.50;;;;;;;17.70;47.26;102480.28;5065120;28;20017;-64
2022/12/02 06:53:35;;;;;;;9.50;7.50;;;;;;;17.76;47.32;102483.50;5064931;28;20028;-64
2022/12/02 06:56:16;;;;;;;12.55;8.00;;;;;;;17.76;47.34;102481.69;5062212;28;20025;-63
2022/12/02 06:58:44;;;;;;;10.65;7.57;;;;;;;17.78;47.24;102486.94;5063236;28;20032;-63
2022/12/02 07:01:20;;;;;;;11.27;7.72;;;;;;;17.79;47.05;102488.63;5080231;28;20044;-63
2022/12/02 07:04:05;;;;;;;12.82;8.27;;;;;;;17.79;47.20;102489.47;5064629;28;20470;-64
2022/12/02 07:06:31;;;;;;;14.07;9.25;;;;;;;17.78;47.05;102490.47;5062619;28;20025;-63
2022/12/02 07:08:59;;;;;;;11.38;7.55;;;;;;;17.81;47.19;102495.59;5059413;28;20021;-64
2022/12/02 07:11:50;;;;;;;11.85;8.10;;;;;;;17.81;47.43;102501.00;5062676;28;20053;-64
2022/12/02 07:14:21;;;;;;;11.82;8.20;;;;;;;17.82;47.51;102493.78;5063139;28;20044;-65
2022/12/02 07:16:47;;;;;;;13.82;8.45;;;;;;;17.83;47.24;102499.03;5063800;28;20047;-65
2022/12/02 07:19:15;;;;;;;14.70;9.15;;;;;;;17.84;47.55;102492.69;5063414;28;20035;-65
2022/12/02 07:21:41;;;;;;;10.30;7.63;;;;;;;17.86;47.46;102504.16;5063718;28;20529;-65
2022/12/02 07:24:10;;;;;;;11.10;8.15;;;;;;;17.84;47.54;102498.06;5069866;28;20036;-65
2022/12/02 07:26:35;;;;;;;11.15;7.72;;;;;;;17.89;47.41;102508.47;5063623;28;20078;-65
2022/12/02 07:29:01;;;;;;;12.75;8.45;;;;;;;17.91;47.34;102514.56;5060667;28;20024;-65
2022/12/02 07:31:27;;;;;;;11.32;7.72;;;;;;;17.86;47.25;102498.78;5060159;28;20033;-66
2022/12/02 07:33:53;;;;;;;10.55;8.50;;;;;;;17.94;47.02;102517.88;5071004;28;20479;-65
2022/12/02 07:36:19;;;;;;;11.55;8.57;;;;;;;17.95;47.09;102516.03;5062993;28;20045;-65
2022/12/02 07:38:44;;;;;;;10.23;7.68;;;;;;;17.93;47.30;102508.09;5058494;28;20481;-65
2022/12/02 07:41:09;;;;;;;11.85;8.85;;;;;;;17.96;47.33;102509.66;5063383;28;20055;-65
2022/12/02 07:43:34;;;;;;;11.40;8.52;;;;;;;17.94;47.35;102507.09;5068764;28;20036;-65
2022/12/02 07:46:00;;;;;;;11.70;7.82;;;;;;;17.95;47.17;102505.25;5073261;28;20049;-64
2022/12/02 07:48:25;;;;;;;12.65;9.02;;;;;;;17.99;47.20;102512.97;5063898;28;20497;-65
2022/12/02 07:50:51;;;;;;;12.35;8.75;;;;;;;18.02;47.32;102516.41;5063755;28;20056;-65
2022/12/02 07:53:16;;;;;;;10.00;7.72;;;;;;;18.02;47.25;102511.88;5071896;28;20028;-65
2022/12/02 07:55:41;;;;;;;11.05;9.00;;;;;;;18.01;47.01;102512.84;5083393;28;20035;-64
2022/12/02 07:58:07;;;;;;;13.15;8.50;;;;;;;18.06;47.15;102516.03;5084262;28;20032;-64
2022/12/02 08:00:32;;;;;;;12.63;8.80;;;;;;;18.04;46.91;102509.03;5064972;28;20051;-65
2022/12/02 08:02:58;;;;;;;10.73;8.20;;;;;;;18.09;47.07;102513.06;5064117;28;20040;-65
2022/12/02 08:05:23;;;;;;;12.93;8.05;;;;;;;17.99;47.01;102496.81;5072678;28;20067;-64
2022/12/02 08:07:49;;;;;;;11.80;8.32;;;;;;;18.13;46.96;102516.38;5071620;28;20029;-65
2022/12/02 08:10:14;;;;;;;15.20;8.95;;;;;;;18.16;46.64;102519.66;5079613;28;20035;-66
2022/12/02 08:12:41;;;;;;;10.75;8.15;;;;;;;18.20;46.57;102517.59;5062895;28;20033;-64
2022/12/02 08:15:07;;;;;;;14.38;8.23;;;;;;;18.22;46.62;102516.50;5063342;28;20052;-63
2022/12/02 08:17:33;;;;;;;14.20;9.38;;;;;;;18.25;46.45;102520.75;5073842;28;20020;-64
2022/12/02 08:19:58;;;;;;;11.63;7.97;;;;;;;18.27;46.30;102508.03;5069301;28;20055;-64
2022/12/02 08:22:24;;;;;;;12.38;9.48;;;;;;;18.29;46.09;102507.91;5063735;28;20033;-64
2022/12/02 08:24:49;;;;;;;11.32;8.32;;;;;;;18.31;46.36;102514.88;5067757;28;20024;-63
2022/12/02 08:27:14;;;;;;;13.88;9.88;;;;;;;18.31;46.05;102516.69;5074809;28;20033;-64
2022/12/02 08:29:40;;;;;;;11.45;8.40;;;;;;;18.29;46.11;102510.59;5065766;28;20041;-64
2022/12/02 08:32:05;;;;;;;10.70;7.75;;;;;;;18.28;46.36;102515.13;5067911;28;20035;-63
2022/12/02 08:34:30;;;;;;;14.02;8.77;;;;;;;18.28;46.31;102516.97;5069020;28;20036;-63
2022/12/02 08:36:55;;;;;;;11.95;8.30;;;;;;;18.28;46.28;102525.91;5087674;28;20070;-66
2022/12/02 08:39:21;;;;;;;12.32;8.90;;;;;;;18.30;46.06;102520.38;5078764;28;20088;-62
2022/12/02 08:41:46;;;;;;;12.23;8.75;;;;;;;18.25;46.25;102501.91;5079883;28;20055;-64
2022/12/02 08:44:11;;;;;;;14.05;8.60;;;;;;;18.26;46.07;102510.84;5086808;28;20028;-63
2022/12/02 08:46:37;;;;;;;12.60;8.48;;;;;;;18.31;46.05;102516.69;5083204;28;20060;-64
2022/12/02 08:49:02;;;;;;;12.85;8.90;;;;;;;18.33;45.95;102514.75;5067256;28;20025;-63
2022/12/02 08:51:28;;;;;;;9.95;7.82;;;;;;;18.33;46.00;102512.91;5067180;28;20086;-63
2022/12/02 08:53:53;;;;;;;12.45;8.27;;;;;;;18.34;45.95;102511.91;5065753;28;20051;-64
2022/12/02 08:56:18;;;;;;;13.00;8.43;;;;;;;18.34;45.80;102516.47;5067185;28;20029;-63
2022/12/02 08:58:44;;;;;;;12.85;9.07;;;;;;;18.35;45.67;102518.16;5054024;28;20036;-64
2022/12/02 09:01:09;;;;;;;11.85;8.35;;;;;;;18.35;45.76;102515.47;5079973;28;20029;-63
2022/12/02 09:03:35;;;;;;;10.40;7.95;;;;;;;18.35;45.64;102505.59;5067085;28;20029;-63
2022/12/02 09:06:01;;;;;;;12.52;8.43;;;;;;;18.34;45.63;102506.53;5081002;28;20029;-64
2022/12/02 09:08:26;;;;;;;13.13;8.60;;;;;;;18.33;45.74;102502.13;5070071;28;20742;-63
2022/12/02 09:10:51;;;;;;;13.68;9.23;;;;;;;18.32;45.46;102502.28;5086951;28;20029;-64
2022/12/02 09:13:16;;;;;;;12.75;8.73;;;;;;;18.36;45.46;102501.91;5067357;28;20077;-64
2022/12/02 09:15:42;;;;;;;13.07;9.13;;;;;;;18.36;45.48;102514.50;5065737;28;20040;-64
2022/12/02 09:18:07;;;;;;;13.65;8.98;;;;;;;18.37;45.45;102511.69;5070106;28;20064;-64
2022/12/02 09:20:32;;;;;;;16.02;10.75;;;;;;;18.37;45.10;102510.81;5083044;28;20032;-64
2022/12/02 09:23:00;;;;;;;13.98;9.13;;;;;;;18.36;45.37;102511.81;5072165;28;20024;-64
2022/12/02 09:25:25;;;;;;;13.38;9.23;;;;;;;18.37;45.07;102506.28;5086856;28;20032;-64
2022/12/02 09:27:50;;;;;;;14.98;9.75;;;;;;;18.37;45.17;102516.22;5067620;28;20040;-64
2022/12/02 09:30:16;;;;;;;12.35;8.88;;;;;;;18.39;45.22;102515.13;5065017;28;20056;-64
2022/12/02 09:32:41;;;;;;;14.80;9.40;;;;;;;18.40;45.15;102510.59;5066119;28;20028;-64
2022/12/02 09:35:07;;;;;;;14.27;9.82;;;;;;;18.41;45.44;102507.75;5072424;28;20034;-64
2022/12/02 09:37:32;;;;;;;14.45;9.23;;;;;;;18.43;45.44;102515.69;5079111;28;20021;-65
2022/12/02 09:39:57;;;;;;;13.05;8.93;;;;;;;18.33;45.44;102504.84;5072632;28;20029;-64
2022/12/02 09:42:23;;;;;;;15.65;9.77;;;;;;;18.40;45.57;102510.59;5083010;28;20025;-65
2022/12/02 09:44:49;;;;;;;14.50;8.88;;;;;;;18.42;45.58;102506.75;5085912;28;20016;-65
2022/12/02 09:47:15;;;;;;;12.73;8.65;;;;;;;18.40;45.58;102510.59;5077915;28;20048;-65
2022/12/02 09:49:42;;;;;;;11.77;8.05;;;;;;;18.45;45.37;102513.75;5077566;28;20051;-65
2022/12/02 09:52:14;;;;;;;12.18;8.85;;;;;;;18.44;45.52;102509.34;5070909;28;20032;-65
2022/12/02 09:54:39;;;;;;;14.13;9.25;;;;;;;18.46;45.30;102507.38;5063229;28;20457;-65
2022/12/02 09:57:09;;;;;;;12.23;8.77;;;;;;;18.33;45.60;102488.69;5061941;28;20021;-65
2022/12/02 09:59:34;;;;;;;15.73;9.55;;;;;;;18.46;45.43;102510.06;5061684;28;20103;-65
2022/12/02 10:01:59;;;;;;;12.38;9.75;;;;;;;18.45;45.27;102502.97;5065845;28;20033;-63
2022/12/02 10:04:25;;;;;;;16.30;9.95;;;;;;;18.43;45.83;102499.53;5064202;28;20033;-64
2022/12/02 10:06:50;;;;;;;15.35;10.07;;;;;;;18.37;45.78;102490.13;5063079;28;20514;-64
2022/12/02 10:09:18;;;;;;;16.75;9.82;;;;;;;18.41;45.73;102496.97;5063557;28;20052;-61
2022/12/02 10:11:44;;;;;;;14.85;9.65;;;;;;;18.41;45.56;102501.50;5064503;28;20040;-65
2022/12/02 10:14:13;;;;;;;16.45;10.02;;;;;;;18.42;45.71;102495.13;5073435;28;20059;-64
2022/12/02 10:16:38;;;;;;;;;;;;;;;18.45;45.51;102495.75;5084756;28;20016;-65
2022/12/02 10:19:04;;;;;;;14.40;9.07;;;;;;;18.46;45.60;102494.75;5073981;28;19920;-65
2022/12/02 10:21:30;;;;;;;16.33;9.93;;;;;;;18.47;45.73;102498.31;5064613;28;20017;-65
2022/12/02 10:23:55;;;;;;;12.68;9.00;;;;;;;18.46;45.68;102496.59;5065391;28;20032;-64
2022/12/02 10:26:21;;;;;;;13.52;9.65;;;;;;;18.47;45.44;102498.31;5081682;28;20075;-64
2022/12/02 10:29:07;;;;;;;15.30;9.95;;;;;;;18.48;45.35;102500.03;5069108;28;20016;-64
2022/12/02 10:31:33;;;;;;;13.73;9.82;;;;;;;18.49;45.71;102493.66;5085117;28;20024;-64
2022/12/02 10:34:04;;;;;;;12.20;9.30;;;;;;;18.50;45.66;102492.66;5071475;28;20060;-64
2022/12/02 10:36:34;;;;;;;15.35;10.15;;;;;;;18.49;45.48;102494.50;5065333;28;20017;-64
2022/12/02 10:39:21;;;;;;;16.60;10.40;;;;;;;18.52;45.37;102495.22;5070891;28;20031;-65
2022/12/02 10:42:08;;;;;;;14.23;9.85;;;;;;;18.52;45.69;102488.03;5073180;28;20055;-64
2022/12/02 10:44:36;;;;;;;13.85;9.98;;;;;;;18.54;45.61;102488.75;5065761;28;20109;-65
2022/12/02 10:47:17;;;;;;;14.48;10.73;;;;;;;18.54;45.13;102488.75;5081482;28;20044;-64
2022/12/02 10:49:57;;;;;;;13.05;9.43;;;;;;;18.56;45.21;102484.06;5076581;28;20124;-64
2022/12/02 10:52:43;;;;;;;13.07;9.95;;;;;;;18.57;45.10;102485.78;5083656;28;20025;-64
2022/12/02 10:55:09;;;;;;;14.07;9.32;;;;;;;18.42;45.27;102466.38;5063545;28;20021;-65
2022/12/02 10:57:35;;;;;;;15.43;10.63;;;;;;;18.58;45.51;102487.50;5063920;28;20025;-64
2022/12/02 11:00:28;;;;;;;13.88;9.95;;;;;;;18.58;45.40;102479.41;5077982;28;20084;-64
2022/12/02 11:02:58;;;;;;;13.55;9.27;;;;;;;18.59;45.14;102473.03;5043367;28;20040;-64
2022/12/02 11:05:30;;;;;;;14.43;10.32;;;;;;;18.61;45.49;102470.25;5058169;28;20390;-65
2022/12/02 11:08:26;;;;;;;18.30;10.90;;;;;;;18.61;45.10;102468.41;5071248;28;20029;-65
2022/12/02 11:11:12;;;;;;;15.32;10.85;;;;;;;18.60;45.12;102469.34;5064628;28;20025;-65
2022/12/02 11:14:01;;;;;;;15.13;10.43;;;;;;;18.52;45.06;102457.50;5064583;28;20028;-65
2022/12/02 11:16:26;;;;;;;14.80;9.85;;;;;;;18.61;45.26;102464.84;5078448;28;20021;-65
2022/12/02 11:19:08;;;;;;;15.30;10.43;;;;;;;18.61;45.32;102464.84;5064030;28;20025;-64
2022/12/02 11:21:41;;;;;;;15.75;10.15;;;;;;;18.62;45.07;102461.16;5047284;28;20040;-64